createdAt,value
2022-12-11T00:00:07.428Z,0.60
2022-12-11T00:06:16.213Z,0.40
2022-12-11T00:12:24.934Z,0.90
2022-12-11T00:18:33.486Z,0.50
2022-12-11T00:24:43.460Z,0.85
2022-12-11T00:30:57.020Z,0.60
2022-12-11T00:37:07.805Z,0.55
2022-12-11T00:43:18.056Z,1.60
2022-12-11T00:49:25.570Z,1.02
2022-12-11T00:55:32.979Z,0.75
2022-12-11T01:01:43.456Z,0.80
2022-12-11T01:07:56.041Z,0.70
2022-12-11T01:14:04.399Z,0.70
2022-12-11T01:20:14.549Z,0.82
2022-12-11T01:26:24.381Z,1.25
2022-12-11T01:32:33.382Z,0.80
2022-12-11T01:38:42.373Z,0.50
2022-12-11T01:45:31.903Z,0.50
2022-12-11T01:51:41.293Z,0.70
2022-12-11T01:57:53.840Z,1.32
2022-12-11T02:04:04.799Z,0.90
2022-12-11T02:10:15.492Z,0.50
2022-12-11T02:16:23.695Z,1.10
2022-12-11T02:22:41.870Z,1.37
2022-12-11T02:28:52.356Z,0.50
2022-12-11T02:35:09.066Z,0.72
2022-12-11T02:41:18.365Z,0.60
2022-12-11T02:47:28.383Z,0.75
2022-12-11T02:53:39.860Z,0.57
2022-12-11T02:59:52.671Z,0.62
2022-12-11T03:06:03.341Z,0.75
2022-12-11T03:12:14.402Z,0.60
2022-12-11T03:18:24.618Z,1.10
2022-12-11T03:24:36.640Z,1.27
2022-12-11T03:30:46.595Z,1.15
2022-12-11T03:36:55.705Z,1.17
2022-12-11T03:43:04.906Z,1.10
2022-12-11T03:49:16.689Z,0.88
2022-12-11T03:55:24.418Z,0.98
2022-12-11T04:01:31.902Z,1.27
2022-12-11T04:07:42.694Z,0.80
2022-12-11T04:13:55.157Z,1.32
2022-12-11T04:20:21.025Z,1.02
2022-12-11T04:26:28.419Z,0.82
2022-12-11T04:32:38.158Z,0.85
2022-12-11T04:38:49.052Z,0.85
2022-12-11T04:44:58.093Z,0.70
2022-12-11T04:51:07.432Z,0.93
2022-12-11T04:57:17.271Z,1.27
2022-12-11T05:03:26.420Z,0.88
2022-12-11T05:09:37.158Z,0.85
2022-12-11T05:15:47.694Z,1.00
2022-12-11T05:21:58.266Z,0.93
2022-12-11T05:28:10.946Z,1.25
2022-12-11T05:34:18.266Z,1.15
2022-12-11T05:40:29.063Z,0.80
2022-12-11T05:46:41.649Z,1.17
2022-12-11T05:52:51.756Z,0.85
2022-12-11T05:58:59.181Z,0.95
2022-12-11T06:05:13.454Z,0.65
2022-12-11T06:11:24.528Z,0.75
2022-12-11T06:17:35.594Z,0.70
2022-12-11T06:23:48.630Z,0.75
2022-12-11T06:29:58.971Z,1.45
2022-12-11T06:36:14.299Z,0.90
2022-12-11T06:42:26.098Z,1.22
2022-12-11T06:48:35.384Z,1.00
2022-12-11T06:54:48.191Z,0.93
2022-12-11T07:00:59.795Z,0.80
2022-12-11T07:07:10.697Z,1.25
2022-12-11T07:13:21.552Z,0.93
2022-12-11T07:19:30.500Z,0.62
2022-12-11T07:25:43.561Z,0.75
2022-12-11T07:31:54.458Z,0.70
2022-12-11T07:38:05.401Z,1.25
2022-12-11T07:44:15.162Z,0.75
2022-12-11T07:50:25.109Z,1.32
2022-12-11T07:56:36.831Z,0.95
2022-12-11T08:02:44.981Z,1.00
2022-12-11T08:08:55.215Z,1.15
2022-12-11T08:15:04.415Z,1.67
2022-12-11T08:21:19.076Z,0.70
2022-12-11T08:27:28.027Z,0.80
2022-12-11T08:33:38.754Z,0.90
2022-12-11T08:39:49.027Z,0.72
2022-12-11T08:46:01.592Z,0.80
2022-12-11T08:52:15.352Z,0.98
2022-12-11T08:58:27.959Z,0.85
2022-12-11T09:04:35.995Z,0.90
2022-12-11T09:10:45.909Z,1.22
2022-12-11T09:16:56.755Z,1.10
2022-12-11T09:23:06.710Z,1.15
2022-12-11T09:29:16.883Z,0.80
2022-12-11T09:35:28.450Z,0.93
2022-12-11T09:41:44.706Z,0.70
2022-12-11T09:47:55.380Z,0.70
2022-12-11T09:54:07.505Z,1.25
2022-12-11T10:00:30.354Z,0.82
2022-12-11T10:06:41.632Z,0.80
2022-12-11T10:12:54.131Z,0.78
2022-12-11T10:19:05.001Z,0.90
2022-12-11T10:25:23.998Z,1.10
2022-12-11T10:31:36.131Z,0.90
2022-12-11T10:37:45.463Z,0.70
2022-12-11T10:43:57.175Z,0.80
2022-12-11T10:50:06.759Z,1.20
2022-12-11T10:56:15.737Z,1.27
2022-12-11T11:02:30.360Z,0.82
2022-12-11T11:08:44.812Z,0.88
2022-12-11T11:15:16.977Z,0.75
2022-12-11T11:21:25.802Z,0.90
2022-12-11T11:27:38.857Z,0.60
2022-12-11T11:33:52.567Z,1.22
2022-12-11T11:40:04.915Z,1.20
2022-12-11T11:46:18.754Z,1.12
2022-12-11T11:52:28.476Z,0.80
2022-12-11T11:58:40.349Z,1.10
2022-12-11T12:04:49.887Z,0.88
2022-12-11T12:11:00.718Z,0.85
2022-12-11T12:17:15.461Z,0.78
2022-12-11T12:23:37.383Z,0.70
2022-12-11T12:29:49.557Z,0.70
2022-12-11T12:36:05.096Z,0.65
2022-12-11T12:42:12.339Z,0.95
2022-12-11T12:48:20.350Z,0.88
2022-12-11T12:54:29.614Z,0.65
2022-12-11T13:00:38.198Z,0.82
2022-12-11T13:06:51.913Z,0.60
2022-12-11T13:13:02.749Z,0.60
2022-12-11T13:19:31.147Z,0.78
2022-12-11T13:25:51.957Z,0.75
2022-12-11T13:32:06.923Z,0.60
2022-12-11T13:38:23.498Z,0.65
2022-12-11T13:44:40.740Z,0.68
2022-12-11T13:50:50.156Z,1.00
2022-12-11T13:57:05.194Z,0.75
2022-12-11T14:03:16.999Z,0.78
2022-12-11T14:09:24.988Z,0.82
2022-12-11T14:15:38.993Z,0.93
2022-12-11T14:21:59.732Z,0.80
2022-12-11T14:28:15.944Z,1.20
2022-12-11T14:34:27.635Z,0.85
2022-12-11T14:40:38.229Z,1.00
2022-12-11T14:46:51.140Z,0.70
2022-12-11T14:53:02.904Z,0.53
2022-12-11T14:59:20.388Z,0.60
2022-12-11T15:05:37.130Z,0.60
2022-12-11T15:11:44.763Z,1.30
2022-12-11T15:17:56.238Z,0.72
2022-12-11T15:24:10.141Z,0.85
2022-12-11T15:30:35.925Z,0.80
2022-12-11T15:36:47.024Z,0.80
2022-12-11T15:42:57.247Z,1.02
2022-12-11T15:49:04.778Z,1.55
2022-12-11T15:55:13.241Z,0.78
2022-12-11T16:01:24.595Z,0.95
2022-12-11T16:07:33.208Z,1.07
2022-12-11T16:13:43.477Z,2.02
2022-12-11T16:19:54.668Z,1.10
2022-12-11T16:26:06.742Z,1.80
2022-12-11T16:32:15.830Z,0.70
2022-12-11T16:38:27.173Z,0.85
2022-12-11T16:44:39.538Z,1.07
2022-12-11T16:50:50.574Z,0.98
2022-12-11T16:57:07.133Z,0.93
2022-12-11T17:09:25.146Z,1.07
2022-12-11T17:15:33.734Z,0.98
2022-12-11T17:21:48.530Z,1.82
2022-12-11T17:27:58.687Z,1.15
2022-12-11T17:34:09.784Z,1.15
2022-12-11T17:40:21.521Z,1.22
2022-12-11T17:46:30.971Z,1.17
2022-12-11T17:52:43.870Z,1.10
2022-12-11T17:58:48.125Z,0.60
2022-12-11T18:04:56.475Z,1.42
2022-12-11T18:11:10.175Z,1.00
2022-12-11T18:17:19.146Z,0.75
2022-12-11T18:23:29.535Z,0.62
2022-12-11T18:29:38.715Z,1.00
2022-12-11T18:35:47.958Z,0.90
2022-12-11T18:42:31.335Z,0.88
2022-12-11T18:48:10.719Z,1.52
2022-12-11T18:54:20.861Z,0.95
2022-12-11T19:00:32.283Z,0.85
2022-12-11T19:06:42.463Z,1.37
2022-12-11T19:12:54.284Z,1.15
2022-12-11T19:19:08.140Z,0.90
2022-12-11T19:25:21.154Z,0.88
2022-12-11T19:31:32.261Z,1.00
2022-12-11T19:37:43.455Z,1.05
2022-12-11T19:43:56.723Z,1.30
2022-12-11T19:50:04.946Z,1.12
2022-12-11T19:56:17.360Z,0.85
2022-12-11T20:02:24.873Z,1.25
2022-12-11T20:08:47.923Z,0.93
2022-12-11T20:14:44.263Z,0.88
2022-12-11T20:20:55.362Z,1.00
2022-12-11T20:27:08.038Z,0.65
2022-12-11T20:33:20.530Z,1.10
2022-12-11T20:39:32.686Z,0.82
2022-12-11T20:45:41.414Z,1.60
2022-12-11T20:51:51.481Z,1.07
2022-12-11T20:58:02.863Z,1.10
2022-12-11T21:04:10.551Z,1.30
2022-12-11T21:10:22.626Z,1.80
2022-12-11T21:16:32.033Z,1.13
2022-12-11T21:22:41.366Z,4.25
2022-12-11T21:28:51.707Z,12.45
2022-12-11T21:35:01.558Z,10.28
2022-12-11T21:41:15.086Z,9.35
2022-12-11T21:47:25.283Z,7.83
2022-12-11T21:53:33.684Z,9.05
2022-12-11T21:59:42.421Z,6.47
2022-12-11T22:05:53.571Z,6.78
2022-12-11T22:12:03.675Z,5.20
2022-12-11T22:18:13.492Z,4.90
2022-12-11T22:24:22.379Z,4.90
2022-12-11T22:30:33.762Z,5.10
2022-12-11T22:36:44.613Z,4.35
2022-12-11T22:42:52.361Z,3.90
2022-12-11T22:49:03.347Z,3.42
2022-12-11T22:55:14.394Z,4.40
2022-12-11T23:01:25.461Z,3.17
2022-12-11T23:07:36.573Z,3.77
2022-12-11T23:13:45.885Z,2.98
2022-12-11T23:19:56.662Z,4.70
2022-12-11T23:26:06.247Z,3.15
2022-12-11T23:32:14.603Z,3.55
2022-12-11T23:38:25.323Z,2.72
2022-12-11T23:44:34.659Z,2.50
2022-12-11T23:50:42.298Z,2.10
2022-12-11T23:56:53.006Z,2.40
